createdAt,value
2018-04-26T00:00:49.240Z,55.00
2018-04-26T00:03:16.619Z,51.60
2018-04-26T00:05:44.102Z,51.10
2018-04-26T00:13:08.252Z,53.70
2018-04-26T00:15:36.833Z,54.60
2018-04-26T00:18:04.202Z,54.00
2018-04-26T00:20:32.288Z,54.40
2018-04-26T00:22:59.621Z,53.70
2018-04-26T00:27:56.791Z,55.30
2018-04-26T00:30:24.162Z,54.50
2018-04-26T00:32:51.487Z,51.70
2018-04-26T00:35:19.587Z,52.10
2018-04-26T00:37:47.760Z,54.10
2018-04-26T00:40:15.129Z,52.90
2018-04-26T00:42:42.500Z,53.00
2018-04-26T00:45:10.620Z,50.60
2018-04-26T00:47:38.761Z,51.20
2018-04-26T00:52:34.478Z,54.00
2018-04-26T00:55:02.579Z,55.10
2018-04-26T00:57:29.979Z,55.00
2018-04-26T00:59:58.091Z,54.20
2018-04-26T01:02:26.219Z,54.10
2018-04-26T01:04:53.580Z,52.50
2018-04-26T01:07:20.966Z,52.00
2018-04-26T01:09:49.115Z,52.50
2018-04-26T01:12:16.595Z,53.20
2018-04-26T01:14:44.790Z,53.30
2018-04-26T01:17:13.050Z,52.60
2018-04-26T01:22:09.650Z,54.50
2018-04-26T01:24:37.051Z,54.50
2018-04-26T01:27:05.146Z,53.00
2018-04-26T01:29:32.543Z,54.20
2018-04-26T01:32:00.643Z,53.70
2018-04-26T01:37:09.263Z,54.90
2018-04-26T01:42:05.763Z,56.40
2018-04-26T01:44:33.975Z,56.40
2018-04-26T01:47:01.304Z,57.50
2018-04-26T01:49:28.811Z,58.00
2018-04-26T01:56:52.707Z,57.20
2018-04-26T02:01:48.358Z,56.50
2018-04-26T02:04:15.773Z,58.00
2018-04-26T02:06:43.139Z,58.00
2018-04-26T02:09:11.315Z,57.20
2018-04-26T02:14:07.168Z,60.00
2018-04-26T02:16:34.654Z,58.20
2018-04-26T02:21:30.332Z,58.20
2018-04-26T02:23:57.670Z,58.90
2018-04-26T02:26:25.034Z,59.40
2018-04-26T02:31:21.499Z,60.40
2018-04-26T02:33:49.564Z,61.90
2018-04-26T02:38:45.302Z,61.60
2018-04-26T02:41:12.683Z,61.70
2018-04-26T02:43:40.820Z,62.00
2018-04-26T02:46:08.876Z,62.10
2018-04-26T02:48:36.202Z,63.20
2018-04-26T02:51:03.771Z,61.50
2018-04-26T02:55:59.495Z,62.00
2018-04-26T02:58:26.871Z,61.50
2018-04-26T03:00:54.409Z,62.60
2018-04-26T03:03:21.744Z,60.80
2018-04-26T03:05:49.936Z,61.50
2018-04-26T03:08:17.489Z,62.30
2018-04-26T03:10:44.867Z,62.50
2018-04-26T03:13:12.971Z,63.10
2018-04-26T03:15:40.486Z,63.40
2018-04-26T03:20:36.876Z,63.30
2018-04-26T03:23:04.311Z,63.90
2018-04-26T03:25:32.414Z,64.20
2018-04-26T03:27:59.895Z,64.30
2018-04-26T03:30:27.387Z,64.00
2018-04-26T03:32:54.784Z,62.80
2018-04-26T03:37:51.234Z,62.10
2018-04-26T03:42:47.641Z,63.90
2018-04-26T03:45:15.498Z,64.70
2018-04-26T03:47:42.928Z,64.80
2018-04-26T03:50:11.010Z,64.80
2018-04-26T03:52:38.381Z,64.60
2018-04-26T03:55:06.522Z,64.10
2018-04-26T04:00:14.490Z,63.70
2018-04-26T04:02:54.079Z,63.20
2018-04-26T04:05:33.783Z,63.20
2018-04-26T04:10:30.472Z,63.20
2018-04-26T04:12:58.590Z,63.20
2018-04-26T04:15:26.142Z,63.00
2018-04-26T04:17:53.503Z,66.60
2018-04-26T04:20:21.595Z,59.90
2018-04-26T04:25:17.419Z,59.80
2018-04-26T04:27:44.780Z,59.30
2018-04-26T04:32:41.443Z,59.30
2018-04-26T04:35:09.948Z,58.40
2018-04-26T04:37:37.364Z,58.50
2018-04-26T04:42:33.082Z,58.10
2018-04-26T04:45:01.251Z,59.00
2018-04-26T04:47:28.594Z,58.50
2018-04-26T04:49:56.022Z,59.20
2018-04-26T04:52:24.149Z,59.40
2018-04-26T04:54:52.262Z,58.50
2018-04-26T04:57:20.378Z,60.00
2018-04-26T04:59:47.718Z,56.80
2018-04-26T05:02:15.800Z,50.80
2018-04-26T05:04:43.387Z,52.30
2018-04-26T05:07:10.728Z,55.90
2018-04-26T05:12:06.564Z,56.60
2018-04-26T05:14:34.023Z,57.40
2018-04-26T05:17:02.213Z,57.90
2018-04-26T05:21:57.947Z,59.90
2018-04-26T05:24:25.348Z,60.00
2018-04-26T05:29:21.240Z,61.10
2018-04-26T05:31:48.634Z,59.70
2018-04-26T05:34:16.750Z,60.20
2018-04-26T05:36:44.174Z,59.00
2018-04-26T05:46:36.755Z,55.10
2018-04-26T05:49:04.422Z,55.90
2018-04-26T05:56:28.407Z,57.10
2018-04-26T05:58:56.550Z,57.60
2018-04-26T06:03:53.040Z,53.40
2018-04-26T06:11:17.231Z,54.20
2018-04-26T06:13:45.362Z,52.70
2018-04-26T06:16:12.730Z,54.10
2018-04-26T06:18:40.146Z,49.70
2018-04-26T06:21:08.354Z,50.50
2018-04-26T06:23:35.810Z,52.70
2018-04-26T06:26:04.005Z,50.10
2018-04-26T06:28:31.389Z,50.90
2018-04-26T06:33:27.087Z,49.90
2018-04-26T06:38:23.939Z,47.60
2018-04-26T06:40:51.258Z,47.10
2018-04-26T06:43:18.730Z,45.70
2018-04-26T06:45:46.223Z,45.90
2018-04-26T06:48:13.601Z,49.40
2018-04-26T06:50:41.787Z,48.40
2018-04-26T06:53:09.988Z,50.80
2018-04-26T06:55:37.321Z,47.90
2018-04-26T06:58:05.631Z,46.70
2018-04-26T07:00:33.037Z,47.70
2018-04-26T07:03:01.221Z,47.40
2018-04-26T07:07:57.006Z,50.30
2018-04-26T07:10:24.384Z,45.10
2018-04-26T07:12:52.502Z,45.40
2018-04-26T07:17:48.099Z,52.50
2018-04-26T07:20:15.910Z,51.40
2018-04-26T07:22:43.244Z,50.60
2018-04-26T07:27:38.994Z,43.50
2018-04-26T07:30:07.086Z,43.10
2018-04-26T07:35:02.963Z,40.90
2018-04-26T07:37:30.316Z,41.30
2018-04-26T07:39:58.394Z,40.40
2018-04-26T07:44:54.866Z,39.20
2018-04-26T07:47:22.283Z,39.00
2018-04-26T07:49:51.032Z,38.10
2018-04-26T07:54:46.731Z,36.80
2018-04-26T07:57:14.818Z,39.70
2018-04-26T07:59:42.191Z,40.80
2018-04-26T08:02:10.322Z,39.10
2018-04-26T08:07:06.837Z,38.00
2018-04-26T08:12:03.263Z,38.20
2018-04-26T08:14:30.673Z,37.60
2018-04-26T08:16:58.072Z,38.90
2018-04-26T08:19:25.516Z,36.90
2018-04-26T08:24:22.178Z,38.10
2018-04-26T08:29:17.792Z,36.40
2018-04-26T08:34:13.455Z,37.80
2018-04-26T08:39:09.256Z,36.60
2018-04-26T08:41:36.630Z,35.00
2018-04-26T08:44:04.334Z,36.90
2018-04-26T08:53:56.779Z,39.40
2018-04-26T08:56:24.895Z,41.00
2018-04-26T08:58:52.282Z,36.50
2018-04-26T09:01:19.706Z,35.50
2018-04-26T09:03:47.771Z,43.10
2018-04-26T09:06:15.951Z,42.80
2018-04-26T09:11:11.624Z,38.70
2018-04-26T09:13:39.131Z,33.10
2018-04-26T09:18:34.818Z,32.50
2018-04-26T09:23:30.470Z,36.80
2018-04-26T09:25:57.831Z,30.90
2018-04-26T09:28:26.022Z,32.80
2018-04-26T09:33:22.479Z,31.80
2018-04-26T09:38:18.849Z,35.20
2018-04-26T09:40:46.221Z,37.00
2018-04-26T09:43:13.662Z,31.80
2018-04-26T09:48:09.432Z,33.30
2018-04-26T09:50:37.528Z,30.10
2018-04-26T09:55:34.007Z,30.90
2018-04-26T09:58:02.085Z,32.80
2018-04-26T10:00:29.461Z,31.30
2018-04-26T10:02:56.883Z,32.10
2018-04-26T10:05:31.035Z,29.10
2018-04-26T10:07:58.570Z,29.00
2018-04-26T10:12:54.308Z,28.50
2018-04-26T10:15:21.677Z,32.00
2018-04-26T10:17:49.112Z,28.90
2018-04-26T10:20:16.511Z,24.80
2018-04-26T10:22:43.894Z,24.60
2018-04-26T10:25:12.001Z,25.80
2018-04-26T10:27:40.107Z,28.50
2018-04-26T10:30:07.434Z,26.10
2018-04-26T10:32:34.869Z,25.80
2018-04-26T10:35:02.199Z,23.90
2018-04-26T10:37:30.335Z,23.30
2018-04-26T10:42:25.992Z,26.30
2018-04-26T10:49:50.667Z,28.40
2018-04-26T10:52:18.827Z,31.20
2018-04-26T10:54:46.209Z,29.80
2018-04-26T10:57:14.335Z,30.00
2018-04-26T11:02:10.083Z,29.10
2018-04-26T11:04:37.420Z,29.50
2018-04-26T11:09:33.215Z,28.10
2018-04-26T11:12:00.705Z,27.20
2018-04-26T11:14:28.768Z,26.30
2018-04-26T11:19:24.582Z,26.60
2018-04-26T11:21:51.955Z,24.80
2018-04-26T11:26:48.407Z,28.60
2018-04-26T11:29:15.839Z,25.90
2018-04-26T11:31:43.142Z,23.90
2018-04-26T11:34:10.513Z,24.00
2018-04-26T11:36:37.981Z,23.40
2018-04-26T11:39:05.400Z,18.30
2018-04-26T11:41:33.484Z,20.30
2018-04-26T11:46:30.009Z,26.80
2018-04-26T11:48:58.182Z,26.30
2018-04-26T11:51:25.519Z,24.20
2018-04-26T11:53:52.907Z,24.20
2018-04-26T11:58:48.902Z,23.50
2018-04-26T12:01:16.279Z,23.10
2018-04-26T12:03:43.722Z,21.30
2018-04-26T12:06:11.968Z,23.20
2018-04-26T12:08:39.414Z,23.30
2018-04-26T12:11:06.807Z,21.10
2018-04-26T12:13:34.190Z,20.20
2018-04-26T12:16:02.428Z,26.10
2018-04-26T12:18:29.789Z,26.70
2018-04-26T12:20:57.940Z,22.30
2018-04-26T12:23:25.283Z,26.10
2018-04-26T12:25:52.802Z,21.80
2018-04-26T12:28:20.275Z,20.80
2018-04-26T12:30:48.385Z,24.50
2018-04-26T12:35:44.055Z,18.50
2018-04-26T12:38:12.373Z,23.30
2018-04-26T12:40:39.812Z,20.30
2018-04-26T12:45:36.346Z,24.30
2018-04-26T12:48:03.742Z,21.40
2018-04-26T12:50:31.920Z,21.10
2018-04-26T12:53:00.053Z,21.90
2018-04-26T12:55:27.484Z,26.10
2018-04-26T12:57:55.027Z,25.20
2018-04-26T13:02:50.704Z,27.10
2018-04-26T13:05:18.859Z,27.00
2018-04-26T13:10:14.563Z,26.30
2018-04-26T13:12:42.946Z,25.80
2018-04-26T13:15:10.322Z,20.30
2018-04-26T13:17:37.632Z,18.70
2018-04-26T13:20:05.135Z,25.50
2018-04-26T13:22:33.251Z,25.90
2018-04-26T13:25:00.762Z,24.70
2018-04-26T13:27:28.996Z,23.80
2018-04-26T13:32:24.683Z,23.70
2018-04-26T13:34:52.759Z,18.20
2018-04-26T13:37:20.155Z,21.10
2018-04-26T13:39:47.964Z,24.10
2018-04-26T13:42:16.092Z,23.70
2018-04-26T13:44:43.457Z,21.30
2018-04-26T13:47:10.860Z,23.50
2018-04-26T13:49:39.307Z,20.20
2018-04-26T13:52:06.799Z,23.30
2018-04-26T13:54:34.815Z,21.00
2018-04-26T13:59:31.269Z,24.30
2018-04-26T14:04:27.002Z,20.80
2018-04-26T14:09:22.796Z,21.10
2018-04-26T14:11:50.298Z,23.90
2018-04-26T14:19:14.321Z,23.60
2018-04-26T14:21:41.688Z,23.00
2018-04-26T14:24:09.143Z,23.40
2018-04-26T14:26:36.507Z,24.00
2018-04-26T14:29:03.898Z,24.20
2018-04-26T14:31:31.287Z,23.40
2018-04-26T14:33:59.415Z,23.80
2018-04-26T14:36:27.515Z,23.80
2018-04-26T14:41:23.964Z,21.70
2018-04-26T14:46:20.587Z,18.10
2018-04-26T14:48:49.457Z,22.10
2018-04-26T14:51:17.595Z,20.70
2018-04-26T14:53:44.989Z,24.70
2018-04-26T14:56:13.145Z,26.80
2018-04-26T14:58:41.238Z,26.00
2018-04-26T15:01:09.623Z,22.00
2018-04-26T15:03:37.074Z,24.70
2018-04-26T15:08:33.546Z,25.20
2018-04-26T15:11:00.933Z,25.20
2018-04-26T15:13:28.500Z,24.80
2018-04-26T15:18:24.961Z,24.80
2018-04-26T15:20:53.093Z,24.80
2018-04-26T15:25:48.791Z,24.70
2018-04-26T15:28:16.274Z,21.40
2018-04-26T15:30:43.654Z,24.60
2018-04-26T15:33:11.094Z,20.50
2018-04-26T15:35:39.163Z,20.80
2018-04-26T15:38:07.308Z,22.40
2018-04-26T15:43:21.992Z,22.40
2018-04-26T15:45:49.359Z,20.80
2018-04-26T15:48:17.574Z,21.30
2018-04-26T15:50:52.679Z,23.80
2018-04-26T15:53:32.209Z,24.80
2018-04-26T16:04:46.138Z,23.20
2018-04-26T16:10:46.751Z,23.10
2018-04-26T16:13:32.386Z,23.90
2018-04-26T16:21:33.423Z,23.30
2018-04-26T16:26:53.959Z,24.80
2018-04-26T16:29:39.169Z,24.00
2018-04-26T16:32:24.702Z,23.50
2018-04-26T16:35:10.156Z,24.70
2018-04-26T16:37:57.637Z,26.10
2018-04-26T16:40:26.938Z,26.00
2018-04-26T16:42:57.017Z,27.60
2018-04-26T16:45:25.475Z,26.20
2018-04-26T16:47:52.874Z,25.50
2018-04-26T16:50:22.213Z,24.30
2018-04-26T16:52:50.530Z,25.30
2018-04-26T16:55:18.723Z,25.00
2018-04-26T16:57:46.992Z,25.20
2018-04-26T17:00:16.401Z,24.30
2018-04-26T17:02:46.694Z,26.70
2018-04-26T17:05:16.678Z,28.80
2018-04-26T17:07:46.928Z,26.70
2018-04-26T17:10:14.405Z,26.30
2018-04-26T17:12:42.804Z,24.90
2018-04-26T17:15:11.069Z,25.40
2018-04-26T17:17:39.633Z,27.70
2018-04-26T17:20:08.002Z,26.50
2018-04-26T17:22:35.459Z,27.60
2018-04-26T17:25:03.866Z,26.60
2018-04-26T17:27:31.561Z,27.20
2018-04-26T17:29:59.031Z,27.60
2018-04-26T17:32:30.136Z,27.60
2018-04-26T17:34:58.986Z,28.80
2018-04-26T17:37:28.159Z,26.70
2018-04-26T17:39:56.800Z,27.10
2018-04-26T17:42:24.229Z,26.70
2018-04-26T17:44:51.592Z,27.70
2018-04-26T17:47:19.939Z,27.00
2018-04-26T17:49:47.376Z,28.90
2018-04-26T17:52:18.549Z,28.90
2018-04-26T17:54:46.166Z,28.30
2018-04-26T17:57:15.163Z,28.90
2018-04-26T17:59:43.331Z,28.60
2018-04-26T18:02:10.962Z,27.50
2018-04-26T18:04:38.402Z,28.00
2018-04-26T18:07:12.446Z,27.90
2018-04-26T18:09:44.570Z,30.40
2018-04-26T18:12:19.262Z,27.20
2018-04-26T18:14:49.330Z,29.60
2018-04-26T18:17:28.936Z,28.70
2018-04-26T18:20:08.149Z,27.80
2018-04-26T18:22:27.942Z,27.30
2018-04-26T18:25:06.709Z,28.00
2018-04-26T18:27:37.656Z,27.70
2018-04-26T18:30:13.450Z,27.50
2018-04-26T18:32:42.882Z,27.40
2018-04-26T18:35:14.194Z,26.30
2018-04-26T18:40:25.557Z,26.50
2018-04-26T18:42:59.597Z,27.00
2018-04-26T18:45:33.118Z,27.20
2018-04-26T18:48:02.523Z,26.80
2018-04-26T18:50:35.458Z,26.70
2018-04-26T18:53:04.175Z,27.00
2018-04-26T18:55:35.659Z,27.00
2018-04-26T18:58:05.803Z,27.00
2018-04-26T19:00:33.203Z,27.30
2018-04-26T19:03:00.645Z,27.00
2018-04-26T19:05:30.733Z,27.50
2018-04-26T19:08:01.024Z,27.50
2018-04-26T19:10:28.447Z,27.80
2018-04-26T19:12:59.456Z,27.70
2018-04-26T19:15:32.567Z,28.20
2018-04-26T19:18:00.143Z,27.80
2018-04-26T19:20:29.621Z,28.40
2018-04-26T19:22:58.984Z,28.50
2018-04-26T19:25:28.102Z,28.90
2018-04-26T19:27:58.599Z,29.00
2018-04-26T19:30:27.502Z,30.00
2018-04-26T19:32:55.977Z,30.40
2018-04-26T19:35:24.333Z,28.90
2018-04-26T19:37:52.529Z,29.30
2018-04-26T19:40:21.995Z,28.90
2018-04-26T19:42:50.279Z,28.20
2018-04-26T19:45:21.828Z,28.90
2018-04-26T19:47:51.217Z,30.00
2018-04-26T19:50:19.726Z,29.20
2018-04-26T19:52:47.973Z,28.70
2018-04-26T19:55:18.446Z,28.70
2018-04-26T19:57:52.170Z,29.00
2018-04-26T20:00:21.647Z,29.60
2018-04-26T20:02:49.196Z,31.60
2018-04-26T20:05:18.622Z,29.60
2018-04-26T20:07:46.157Z,29.60
2018-04-26T20:10:14.420Z,30.50
2018-04-26T20:12:41.887Z,30.00
2018-04-26T20:15:09.288Z,30.20
2018-04-26T20:17:36.863Z,30.90
2018-04-26T20:20:06.682Z,30.90
2018-04-26T20:22:34.931Z,30.70
2018-04-26T20:25:03.287Z,31.00
2018-04-26T20:27:30.807Z,31.30
2018-04-26T20:30:00.095Z,31.60
2018-04-26T20:32:29.305Z,31.50
2018-04-26T20:35:00.598Z,31.70
2018-04-26T20:37:30.243Z,31.60
2018-04-26T20:40:00.292Z,32.70
2018-04-26T20:42:27.697Z,32.70
2018-04-26T20:44:58.711Z,32.40
2018-04-26T20:47:26.925Z,31.90
2018-04-26T20:50:02.272Z,32.20
2018-04-26T20:52:30.619Z,32.10
2018-04-26T20:55:00.760Z,32.40
2018-04-26T20:57:31.611Z,32.50
2018-04-26T21:00:05.003Z,33.40
2018-04-26T21:02:34.283Z,32.50
2018-04-26T21:05:04.395Z,35.00
2018-04-26T21:07:32.948Z,33.50
2018-04-26T21:10:02.908Z,32.90
2018-04-26T21:12:32.015Z,33.30
2018-04-26T21:15:02.583Z,33.00
2018-04-26T21:17:30.874Z,33.60
2018-04-26T21:19:59.236Z,34.00
2018-04-26T21:22:30.511Z,34.40
2018-04-26T21:25:04.045Z,33.90
2018-04-26T21:27:32.197Z,33.50
2018-04-26T21:30:02.552Z,33.90
2018-04-26T21:32:30.821Z,33.50
2018-04-26T21:35:03.855Z,33.70
2018-04-26T21:37:31.243Z,33.50
2018-04-26T21:40:01.151Z,33.60
2018-04-26T21:42:28.616Z,33.40
2018-04-26T21:45:00.526Z,33.60
2018-04-26T21:47:28.767Z,34.10
2018-04-26T21:50:02.857Z,34.60
2018-04-26T21:52:37.136Z,34.90
2018-04-26T21:55:13.515Z,34.60
2018-04-26T21:57:46.787Z,34.50
2018-04-26T22:00:20.989Z,34.50
2018-04-26T22:02:48.197Z,34.50
2018-04-26T22:05:24.143Z,35.00
2018-04-26T22:07:52.390Z,34.90
2018-04-26T22:10:19.917Z,36.60
2018-04-26T22:12:48.280Z,35.40
2018-04-26T22:15:16.623Z,35.50
2018-04-26T22:17:47.702Z,35.20
2018-04-26T22:20:17.138Z,34.50
2018-04-26T22:22:44.859Z,35.40
2018-04-26T22:25:12.985Z,35.00
2018-04-26T22:27:40.418Z,35.70
2018-04-26T22:30:08.618Z,35.40
2018-04-26T22:32:36.059Z,35.70
2018-04-26T22:37:32.694Z,35.70
2018-04-26T22:40:00.802Z,36.90
2018-04-26T22:42:28.235Z,36.30
2018-04-26T22:44:56.368Z,35.50
2018-04-26T22:47:23.879Z,36.10
2018-04-26T22:49:52.348Z,38.10
2018-04-26T22:52:20.520Z,38.50
2018-04-26T22:54:47.880Z,39.60
2018-04-26T22:57:15.472Z,38.30
2018-04-26T22:59:42.840Z,38.30
2018-04-26T23:04:39.387Z,36.20
2018-04-26T23:12:04.116Z,36.70
2018-04-26T23:14:31.499Z,39.30
2018-04-26T23:16:59.652Z,36.90
2018-04-26T23:21:55.363Z,36.30
2018-04-26T23:24:22.904Z,36.10
2018-04-26T23:26:50.254Z,35.80
2018-04-26T23:29:17.617Z,36.70
2018-04-26T23:31:45.003Z,35.90
2018-04-26T23:34:12.405Z,37.50
2018-04-26T23:36:39.788Z,36.70
2018-04-26T23:41:36.286Z,38.20
2018-04-26T23:44:03.648Z,40.60
2018-04-26T23:46:31.162Z,38.30
2018-04-26T23:48:58.519Z,36.90
2018-04-26T23:53:54.251Z,35.00
2018-04-26T23:56:21.758Z,35.10
2018-04-26T23:58:50.366Z,35.50
